EGNH - Blackpool Airport
Distance from station: E 5mi, 14km
Updated: 04/23/2018 1:50pm
NOT Current
Mostly Cloudy
Mostly Cloudy
 Wind from WSW
Wind: WSW 25 mph , 41 km/h
Temperature: 50°F , 10°C
Wind Chill: 43°F , 6°C
Dew Point: 50°F , 10°C
Humidity: 100%
Barometer: 29.85 inHg , 1011 hPa
Clouds: Mostly Cloudy
Visibility: 4 miles , 6 km
Cloud details: Mostly Cloudy 200 ft
2018/04/23 20:50 EGNH 232050Z 24022KT 6000 BKN002 10/10 Q1011